sensor_id;sensor_type;location;lat;lon;timestamp;P1;durP1;ratioP1;P2;durP2;ratioP2
6177;SDS011;3122;48.208;11.174;2022-08-01T00:04:41;4.37;;;4.07;;
6177;SDS011;3122;48.208;11.174;2022-08-01T00:09:42;5.10;;;4.70;;
6177;SDS011;3122;48.208;11.174;2022-08-01T00:14:42;4.60;;;4.30;;
6177;SDS011;3122;48.208;11.174;2022-08-01T00:19:43;5.03;;;4.63;;
6177;SDS011;3122;48.208;11.174;2022-08-01T00:24:44;5.10;;;4.60;;
6177;SDS011;3122;48.208;11.174;2022-08-01T00:29:44;4.87;;;4.57;;
6177;SDS011;3122;48.208;11.174;2022-08-01T00:34:45;4.90;;;4.60;;
6177;SDS011;3122;48.208;11.174;2022-08-01T00:39:45;5.10;;;4.60;;
6177;SDS011;3122;48.208;11.174;2022-08-01T00:44:46;5.27;;;4.80;;
6177;SDS011;3122;48.208;11.174;2022-08-01T00:49:47;5.60;;;4.80;;
6177;SDS011;3122;48.208;11.174;2022-08-01T00:54:47;5.30;;;4.80;;
6177;SDS011;3122;48.208;11.174;2022-08-01T00:59:48;8.83;;;4.80;;
6177;SDS011;3122;48.208;11.174;2022-08-01T01:04:48;4.97;;;4.63;;
6177;SDS011;3122;48.208;11.174;2022-08-01T01:15:08;4.97;;;4.67;;
6177;SDS011;3122;48.208;11.174;2022-08-01T01:20:14;5.43;;;4.93;;
6177;SDS011;3122;48.208;11.174;2022-08-01T01:30:40;5.07;;;4.57;;
6177;SDS011;3122;48.208;11.174;2022-08-01T01:35:45;6.10;;;5.10;;
6177;SDS011;3122;48.208;11.174;2022-08-01T01:40:49;5.40;;;5.00;;
6177;SDS011;3122;48.208;11.174;2022-08-01T01:45:51;5.43;;;5.00;;
6177;SDS011;3122;48.208;11.174;2022-08-01T01:50:54;5.87;;;5.13;;
6177;SDS011;3122;48.208;11.174;2022-08-01T01:55:57;5.00;;;4.60;;
6177;SDS011;3122;48.208;11.174;2022-08-01T02:00:59;5.17;;;4.77;;
6177;SDS011;3122;48.208;11.174;2022-08-01T02:06:02;5.30;;;4.83;;
6177;SDS011;3122;48.208;11.174;2022-08-01T02:11:03;6.37;;;4.40;;
6177;SDS011;3122;48.208;11.174;2022-08-01T02:16:21;5.20;;;4.80;;
6177;SDS011;3122;48.208;11.174;2022-08-01T02:21:26;6.57;;;5.37;;
6177;SDS011;3122;48.208;11.174;2022-08-01T02:26:30;5.87;;;4.60;;
6177;SDS011;3122;48.208;11.174;2022-08-01T02:31:32;5.70;;;5.10;;
6177;SDS011;3122;48.208;11.174;2022-08-01T02:36:35;5.00;;;4.60;;
6177;SDS011;3122;48.208;11.174;2022-08-01T02:41:39;5.63;;;4.97;;
6177;SDS011;3122;48.208;11.174;2022-08-01T02:46:45;6.17;;;4.70;;
6177;SDS011;3122;48.208;11.174;2022-08-01T02:51:51;7.50;;;5.07;;
6177;SDS011;3122;48.208;11.174;2022-08-01T02:56:54;5.10;;;4.70;;
6177;SDS011;3122;48.208;11.174;2022-08-01T03:01:57;5.20;;;4.80;;
6177;SDS011;3122;48.208;11.174;2022-08-01T03:06:58;6.00;;;5.10;;
6177;SDS011;3122;48.208;11.174;2022-08-01T03:12:04;5.03;;;4.50;;
6177;SDS011;3122;48.208;11.174;2022-08-01T03:17:08;5.53;;;5.03;;
6177;SDS011;3122;48.208;11.174;2022-08-01T03:22:10;5.73;;;5.20;;
6177;SDS011;3122;48.208;11.174;2022-08-01T03:27:13;4.83;;;4.37;;
6177;SDS011;3122;48.208;11.174;2022-08-01T03:32:15;5.53;;;5.00;;
6177;SDS011;3122;48.208;11.174;2022-08-01T03:42:32;4.37;;;4.07;;
6177;SDS011;3122;48.208;11.174;2022-08-01T03:47:37;4.70;;;4.30;;
6177;SDS011;3122;48.208;11.174;2022-08-01T03:52:42;4.83;;;4.33;;
6177;SDS011;3122;48.208;11.174;2022-08-01T03:57:45;5.30;;;4.60;;
6177;SDS011;3122;48.208;11.174;2022-08-01T04:02:47;7.43;;;4.93;;
6177;SDS011;3122;48.208;11.174;2022-08-01T04:07:49;5.00;;;4.50;;
6177;SDS011;3122;48.208;11.174;2022-08-01T04:12:55;5.07;;;4.57;;
6177;SDS011;3122;48.208;11.174;2022-08-01T04:17:56;5.30;;;4.80;;
6177;SDS011;3122;48.208;11.174;2022-08-01T04:22:56;4.83;;;4.43;;
6177;SDS011;3122;48.208;11.174;2022-08-01T04:27:57;5.00;;;4.53;;
6177;SDS011;3122;48.208;11.174;2022-08-01T04:33:01;4.80;;;4.33;;
6177;SDS011;3122;48.208;11.174;2022-08-01T04:38:05;5.70;;;5.07;;
6177;SDS011;3122;48.208;11.174;2022-08-01T04:43:07;5.20;;;4.70;;
6177;SDS011;3122;48.208;11.174;2022-08-01T04:48:08;5.07;;;4.30;;
6177;SDS011;3122;48.208;11.174;2022-08-01T04:53:16;4.77;;;4.33;;
6177;SDS011;3122;48.208;11.174;2022-08-01T04:58:17;9.63;;;4.43;;
6177;SDS011;3122;48.208;11.174;2022-08-01T05:03:18;5.50;;;4.10;;
6177;SDS011;3122;48.208;11.174;2022-08-01T05:08:19;4.53;;;4.13;;
6177;SDS011;3122;48.208;11.174;2022-08-01T05:13:20;4.00;;;3.70;;
6177;SDS011;3122;48.208;11.174;2022-08-01T05:18:21;11.40;;;4.80;;
6177;SDS011;3122;48.208;11.174;2022-08-01T05:23:21;4.47;;;4.07;;
6177;SDS011;3122;48.208;11.174;2022-08-01T05:28:22;4.93;;;4.43;;
6177;SDS011;3122;48.208;11.174;2022-08-01T05:33:22;4.60;;;3.83;;
6177;SDS011;3122;48.208;11.174;2022-08-01T05:38:23;4.90;;;4.40;;
6177;SDS011;3122;48.208;11.174;2022-08-01T05:43:24;5.50;;;4.10;;
6177;SDS011;3122;48.208;11.174;2022-08-01T05:48:24;4.40;;;4.00;;
6177;SDS011;3122;48.208;11.174;2022-08-01T05:53:25;4.70;;;3.83;;
6177;SDS011;3122;48.208;11.174;2022-08-01T05:58:26;6.13;;;4.87;;
6177;SDS011;3122;48.208;11.174;2022-08-01T06:03:27;4.40;;;4.00;;
6177;SDS011;3122;48.208;11.174;2022-08-01T06:08:31;7.77;;;4.43;;
6177;SDS011;3122;48.208;11.174;2022-08-01T06:13:31;4.60;;;4.20;;
6177;SDS011;3122;48.208;11.174;2022-08-01T06:18:32;5.33;;;4.40;;
6177;SDS011;3122;48.208;11.174;2022-08-01T06:23:33;5.50;;;4.03;;
6177;SDS011;3122;48.208;11.174;2022-08-01T06:28:33;4.43;;;3.90;;
6177;SDS011;3122;48.208;11.174;2022-08-01T06:33:34;5.07;;;4.43;;
6177;SDS011;3122;48.208;11.174;2022-08-01T06:38:34;6.37;;;4.80;;
6177;SDS011;3122;48.208;11.174;2022-08-01T06:43:35;5.40;;;4.90;;
6177;SDS011;3122;48.208;11.174;2022-08-01T06:48:36;5.13;;;4.40;;
6177;SDS011;3122;48.208;11.174;2022-08-01T06:53:39;4.97;;;4.53;;
6177;SDS011;3122;48.208;11.174;2022-08-01T06:58:39;5.60;;;5.10;;
6177;SDS011;3122;48.208;11.174;2022-08-01T07:03:40;5.90;;;5.20;;
6177;SDS011;3122;48.208;11.174;2022-08-01T07:08:41;5.00;;;4.53;;
6177;SDS011;3122;48.208;11.174;2022-08-01T07:13:41;6.53;;;5.00;;
6177;SDS011;3122;48.208;11.174;2022-08-01T07:18:42;5.17;;;4.77;;
6177;SDS011;3122;48.208;11.174;2022-08-01T07:23:42;5.70;;;4.90;;
6177;SDS011;3122;48.208;11.174;2022-08-01T07:28:43;5.47;;;4.97;;
6177;SDS011;3122;48.208;11.174;2022-08-01T07:33:43;5.50;;;5.00;;
6177;SDS011;3122;48.208;11.174;2022-08-01T07:38:45;5.40;;;5.00;;
6177;SDS011;3122;48.208;11.174;2022-08-01T07:43:46;6.40;;;5.10;;
6177;SDS011;3122;48.208;11.174;2022-08-01T07:48:48;4.80;;;4.40;;
6177;SDS011;3122;48.208;11.174;2022-08-01T07:53:49;5.20;;;4.80;;
6177;SDS011;3122;48.208;11.174;2022-08-01T07:58:50;6.07;;;4.90;;
6177;SDS011;3122;48.208;11.174;2022-08-01T08:03:50;6.47;;;4.60;;
6177;SDS011;3122;48.208;11.174;2022-08-01T08:08:51;4.97;;;4.50;;
6177;SDS011;3122;48.208;11.174;2022-08-01T08:13:53;7.47;;;4.60;;
6177;SDS011;3122;48.208;11.174;2022-08-01T08:18:53;6.00;;;4.80;;
6177;SDS011;3122;48.208;11.174;2022-08-01T08:23:54;5.10;;;4.60;;
6177;SDS011;3122;48.208;11.174;2022-08-01T08:29:14;4.70;;;4.30;;
6177;SDS011;3122;48.208;11.174;2022-08-01T08:34:15;4.77;;;4.40;;
6177;SDS011;3122;48.208;11.174;2022-08-01T08:39:16;5.47;;;4.50;;
6177;SDS011;3122;48.208;11.174;2022-08-01T08:44:17;4.63;;;4.33;;
6177;SDS011;3122;48.208;11.174;2022-08-01T08:49:21;4.57;;;4.17;;
6177;SDS011;3122;48.208;11.174;2022-08-01T08:54:23;5.37;;;4.60;;
6177;SDS011;3122;48.208;11.174;2022-08-01T08:59:24;5.87;;;4.03;;
6177;SDS011;3122;48.208;11.174;2022-08-01T09:04:26;4.40;;;4.07;;
6177;SDS011;3122;48.208;11.174;2022-08-01T09:09:26;5.10;;;3.70;;
6177;SDS011;3122;48.208;11.174;2022-08-01T09:14:27;4.03;;;3.63;;
6177;SDS011;3122;48.208;11.174;2022-08-01T09:24:39;4.23;;;3.87;;
6177;SDS011;3122;48.208;11.174;2022-08-01T09:29:41;3.90;;;3.50;;
6177;SDS011;3122;48.208;11.174;2022-08-01T09:34:41;3.47;;;3.17;;
6177;SDS011;3122;48.208;11.174;2022-08-01T09:39:42;4.90;;;3.27;;
6177;SDS011;3122;48.208;11.174;2022-08-01T09:44:45;3.97;;;3.57;;
6177;SDS011;3122;48.208;11.174;2022-08-01T09:49:54;4.70;;;3.27;;
6177;SDS011;3122;48.208;11.174;2022-08-01T09:54:57;3.57;;;3.37;;
6177;SDS011;3122;48.208;11.174;2022-08-01T10:00:03;5.40;;;3.23;;
6177;SDS011;3122;48.208;11.174;2022-08-01T10:05:05;4.10;;;3.40;;
6177;SDS011;3122;48.208;11.174;2022-08-01T10:10:14;3.50;;;3.20;;
6177;SDS011;3122;48.208;11.174;2022-08-01T10:15:15;3.50;;;3.13;;
6177;SDS011;3122;48.208;11.174;2022-08-01T10:20:21;7.03;;;3.30;;
6177;SDS011;3122;48.208;11.174;2022-08-01T10:25:24;3.63;;;3.33;;
6177;SDS011;3122;48.208;11.174;2022-08-01T10:30:28;3.40;;;3.10;;
6177;SDS011;3122;48.208;11.174;2022-08-01T10:35:29;3.27;;;3.00;;
6177;SDS011;3122;48.208;11.174;2022-08-01T10:40:31;5.30;;;3.20;;
6177;SDS011;3122;48.208;11.174;2022-08-01T10:45:32;3.07;;;2.87;;
6177;SDS011;3122;48.208;11.174;2022-08-01T10:50:34;3.00;;;2.80;;
6177;SDS011;3122;48.208;11.174;2022-08-01T10:55:47;6.10;;;2.67;;
6177;SDS011;3122;48.208;11.174;2022-08-01T11:01:12;7.10;;;3.07;;
6177;SDS011;3122;48.208;11.174;2022-08-01T11:06:16;4.60;;;2.63;;
6177;SDS011;3122;48.208;11.174;2022-08-01T11:11:19;2.53;;;2.33;;
6177;SDS011;3122;48.208;11.174;2022-08-01T11:16:27;3.23;;;2.50;;
6177;SDS011;3122;48.208;11.174;2022-08-01T11:27:17;2.40;;;2.30;;
6177;SDS011;3122;48.208;11.174;2022-08-01T11:32:25;2.90;;;2.70;;
6177;SDS011;3122;48.208;11.174;2022-08-01T11:37:27;3.30;;;2.80;;
6177;SDS011;3122;48.208;11.174;2022-08-01T11:42:28;2.63;;;2.43;;
6177;SDS011;3122;48.208;11.174;2022-08-01T11:47:45;4.57;;;3.00;;
6177;SDS011;3122;48.208;11.174;2022-08-01T11:52:47;2.53;;;2.13;;
6177;SDS011;3122;48.208;11.174;2022-08-01T11:58:01;2.93;;;2.20;;
6177;SDS011;3122;48.208;11.174;2022-08-01T12:03:04;2.40;;;2.20;;
6177;SDS011;3122;48.208;11.174;2022-08-01T12:08:06;3.50;;;2.20;;
6177;SDS011;3122;48.208;11.174;2022-08-01T12:13:06;3.30;;;2.07;;
6177;SDS011;3122;48.208;11.174;2022-08-01T12:18:07;2.20;;;2.10;;
6177;SDS011;3122;48.208;11.174;2022-08-01T12:23:12;2.30;;;2.20;;
6177;SDS011;3122;48.208;11.174;2022-08-01T12:28:14;3.63;;;2.70;;
6177;SDS011;3122;48.208;11.174;2022-08-01T12:33:18;1.97;;;1.87;;
6177;SDS011;3122;48.208;11.174;2022-08-01T12:38:21;2.40;;;2.20;;
6177;SDS011;3122;48.208;11.174;2022-08-01T12:43:23;3.67;;;2.10;;
6177;SDS011;3122;48.208;11.174;2022-08-01T12:48:26;5.90;;;2.23;;
6177;SDS011;3122;48.208;11.174;2022-08-01T12:53:27;4.93;;;2.70;;
6177;SDS011;3122;48.208;11.174;2022-08-01T12:58:32;3.63;;;2.47;;
6177;SDS011;3122;48.208;11.174;2022-08-01T13:03:33;3.43;;;2.40;;
6177;SDS011;3122;48.208;11.174;2022-08-01T13:08:35;2.73;;;2.50;;
6177;SDS011;3122;48.208;11.174;2022-08-01T13:13:56;2.90;;;2.70;;
6177;SDS011;3122;48.208;11.174;2022-08-01T13:18:57;3.10;;;2.80;;
6177;SDS011;3122;48.208;11.174;2022-08-01T13:29:06;3.40;;;3.10;;
6177;SDS011;3122;48.208;11.174;2022-08-01T13:34:07;4.60;;;2.67;;
6177;SDS011;3122;48.208;11.174;2022-08-01T13:39:08;7.03;;;3.33;;
6177;SDS011;3122;48.208;11.174;2022-08-01T13:44:28;2.80;;;2.47;;
6177;SDS011;3122;48.208;11.174;2022-08-01T13:49:29;2.90;;;2.60;;
6177;SDS011;3122;48.208;11.174;2022-08-01T13:54:29;3.17;;;2.87;;
6177;SDS011;3122;48.208;11.174;2022-08-01T13:59:31;2.40;;;2.30;;
6177;SDS011;3122;48.208;11.174;2022-08-01T14:04:32;2.90;;;2.63;;
6177;SDS011;3122;48.208;11.174;2022-08-01T14:09:33;3.20;;;2.13;;
6177;SDS011;3122;48.208;11.174;2022-08-01T14:14:33;6.33;;;2.40;;
6177;SDS011;3122;48.208;11.174;2022-08-01T14:19:34;9.63;;;2.50;;
6177;SDS011;3122;48.208;11.174;2022-08-01T14:24:34;3.13;;;2.57;;
6177;SDS011;3122;48.208;11.174;2022-08-01T14:29:35;5.23;;;3.20;;
6177;SDS011;3122;48.208;11.174;2022-08-01T14:34:36;2.97;;;2.67;;
6177;SDS011;3122;48.208;11.174;2022-08-01T14:39:36;10.57;;;3.40;;
6177;SDS011;3122;48.208;11.174;2022-08-01T14:44:40;4.00;;;3.40;;
6177;SDS011;3122;48.208;11.174;2022-08-01T14:49:40;4.30;;;3.13;;
6177;SDS011;3122;48.208;11.174;2022-08-01T14:54:41;4.03;;;2.90;;
6177;SDS011;3122;48.208;11.174;2022-08-01T14:59:41;6.57;;;2.80;;
6177;SDS011;3122;48.208;11.174;2022-08-01T15:04:43;2.53;;;2.30;;
6177;SDS011;3122;48.208;11.174;2022-08-01T15:09:46;3.77;;;2.10;;
6177;SDS011;3122;48.208;11.174;2022-08-01T15:14:47;2.77;;;2.00;;
6177;SDS011;3122;48.208;11.174;2022-08-01T15:19:48;2.10;;;2.00;;
6177;SDS011;3122;48.208;11.174;2022-08-01T15:24:53;2.53;;;2.33;;
6177;SDS011;3122;48.208;11.174;2022-08-01T15:29:56;2.30;;;2.10;;
6177;SDS011;3122;48.208;11.174;2022-08-01T15:34:56;2.63;;;1.80;;
6177;SDS011;3122;48.208;11.174;2022-08-01T15:39:57;2.80;;;2.13;;
6177;SDS011;3122;48.208;11.174;2022-08-01T15:44:58;3.07;;;2.27;;
6177;SDS011;3122;48.208;11.174;2022-08-01T15:49:58;1.70;;;1.60;;
6177;SDS011;3122;48.208;11.174;2022-08-01T15:55:01;5.07;;;2.10;;
6177;SDS011;3122;48.208;11.174;2022-08-01T16:00:03;2.80;;;2.10;;
6177;SDS011;3122;48.208;11.174;2022-08-01T16:05:04;4.70;;;2.20;;
6177;SDS011;3122;48.208;11.174;2022-08-01T16:10:05;2.97;;;2.67;;
6177;SDS011;3122;48.208;11.174;2022-08-01T16:15:06;3.03;;;2.70;;
6177;SDS011;3122;48.208;11.174;2022-08-01T16:20:08;3.00;;;2.40;;
6177;SDS011;3122;48.208;11.174;2022-08-01T16:25:09;3.33;;;2.87;;
6177;SDS011;3122;48.208;11.174;2022-08-01T16:30:10;3.20;;;2.90;;
6177;SDS011;3122;48.208;11.174;2022-08-01T16:35:11;2.60;;;2.40;;
6177;SDS011;3122;48.208;11.174;2022-08-01T16:40:12;2.50;;;2.40;;
6177;SDS011;3122;48.208;11.174;2022-08-01T16:45:12;2.80;;;2.60;;
6177;SDS011;3122;48.208;11.174;2022-08-01T16:50:14;3.00;;;2.80;;
6177;SDS011;3122;48.208;11.174;2022-08-01T16:55:15;3.90;;;3.43;;
6177;SDS011;3122;48.208;11.174;2022-08-01T17:00:16;4.23;;;3.37;;
6177;SDS011;3122;48.208;11.174;2022-08-01T17:05:19;4.83;;;3.73;;
6177;SDS011;3122;48.208;11.174;2022-08-01T17:10:19;5.23;;;2.60;;
6177;SDS011;3122;48.208;11.174;2022-08-01T17:15:20;3.20;;;3.00;;
6177;SDS011;3122;48.208;11.174;2022-08-01T17:20:21;4.17;;;3.30;;
6177;SDS011;3122;48.208;11.174;2022-08-01T17:25:22;3.67;;;2.97;;
6177;SDS011;3122;48.208;11.174;2022-08-01T17:30:23;2.93;;;2.60;;
6177;SDS011;3122;48.208;11.174;2022-08-01T17:35:24;2.70;;;2.40;;
6177;SDS011;3122;48.208;11.174;2022-08-01T17:40:24;3.33;;;2.50;;
6177;SDS011;3122;48.208;11.174;2022-08-01T17:45:25;2.70;;;2.47;;
6177;SDS011;3122;48.208;11.174;2022-08-01T17:50:25;3.53;;;2.30;;
6177;SDS011;3122;48.208;11.174;2022-08-01T17:55:26;5.50;;;3.33;;
6177;SDS011;3122;48.208;11.174;2022-08-01T18:00:27;3.30;;;3.00;;
6177;SDS011;3122;48.208;11.174;2022-08-01T18:05:27;3.17;;;2.67;;
6177;SDS011;3122;48.208;11.174;2022-08-01T18:10:28;3.23;;;2.40;;
6177;SDS011;3122;48.208;11.174;2022-08-01T18:15:29;2.50;;;2.30;;
6177;SDS011;3122;48.208;11.174;2022-08-01T18:20:30;2.83;;;2.53;;
6177;SDS011;3122;48.208;11.174;2022-08-01T18:25:30;2.83;;;2.63;;
6177;SDS011;3122;48.208;11.174;2022-08-01T18:30:32;3.80;;;3.47;;
6177;SDS011;3122;48.208;11.174;2022-08-01T18:35:33;6.33;;;3.00;;
6177;SDS011;3122;48.208;11.174;2022-08-01T18:40:34;3.10;;;2.90;;
6177;SDS011;3122;48.208;11.174;2022-08-01T18:45:34;3.00;;;2.80;;
6177;SDS011;3122;48.208;11.174;2022-08-01T18:50:35;3.37;;;3.07;;
6177;SDS011;3122;48.208;11.174;2022-08-01T18:55:36;2.20;;;2.10;;
6177;SDS011;3122;48.208;11.174;2022-08-01T19:00:36;3.47;;;2.90;;
6177;SDS011;3122;48.208;11.174;2022-08-01T19:05:38;3.17;;;2.80;;
6177;SDS011;3122;48.208;11.174;2022-08-01T19:10:39;4.23;;;2.90;;
6177;SDS011;3122;48.208;11.174;2022-08-01T19:15:40;7.90;;;3.17;;
6177;SDS011;3122;48.208;11.174;2022-08-01T19:20:42;7.57;;;3.27;;
6177;SDS011;3122;48.208;11.174;2022-08-01T19:25:44;3.47;;;2.77;;
6177;SDS011;3122;48.208;11.174;2022-08-01T19:30:45;4.70;;;3.87;;
6177;SDS011;3122;48.208;11.174;2022-08-01T19:35:46;4.40;;;3.00;;
6177;SDS011;3122;48.208;11.174;2022-08-01T19:40:51;2.70;;;2.30;;
6177;SDS011;3122;48.208;11.174;2022-08-01T19:45:52;3.43;;;2.80;;
6177;SDS011;3122;48.208;11.174;2022-08-01T19:50:53;3.00;;;2.70;;
6177;SDS011;3122;48.208;11.174;2022-08-01T19:55:55;3.10;;;2.80;;
6177;SDS011;3122;48.208;11.174;2022-08-01T20:00:59;6.03;;;4.50;;
6177;SDS011;3122;48.208;11.174;2022-08-01T20:06:00;4.73;;;4.20;;
6177;SDS011;3122;48.208;11.174;2022-08-01T20:11:05;6.37;;;3.90;;
6177;SDS011;3122;48.208;11.174;2022-08-01T20:16:07;10.43;;;4.70;;
6177;SDS011;3122;48.208;11.174;2022-08-01T20:21:08;6.90;;;4.07;;
6177;SDS011;3122;48.208;11.174;2022-08-01T20:26:11;4.30;;;4.00;;
6177;SDS011;3122;48.208;11.174;2022-08-01T20:31:14;4.60;;;3.30;;
6177;SDS011;3122;48.208;11.174;2022-08-01T20:36:16;7.77;;;3.77;;
6177;SDS011;3122;48.208;11.174;2022-08-01T20:41:17;4.47;;;3.70;;
6177;SDS011;3122;48.208;11.174;2022-08-01T20:46:18;5.00;;;3.13;;
6177;SDS011;3122;48.208;11.174;2022-08-01T20:51:22;4.70;;;3.30;;
6177;SDS011;3122;48.208;11.174;2022-08-01T21:01:43;5.40;;;3.90;;
6177;SDS011;3122;48.208;11.174;2022-08-01T21:12:25;6.13;;;4.60;;
6177;SDS011;3122;48.208;11.174;2022-08-01T21:22:51;7.83;;;3.70;;
6177;SDS011;3122;48.208;11.174;2022-08-01T21:27:59;4.23;;;2.70;;
6177;SDS011;3122;48.208;11.174;2022-08-01T21:33:01;2.53;;;2.00;;
6177;SDS011;3122;48.208;11.174;2022-08-01T21:38:03;1.93;;;1.60;;
6177;SDS011;3122;48.208;11.174;2022-08-01T21:43:04;2.40;;;1.73;;
6177;SDS011;3122;48.208;11.174;2022-08-01T21:48:06;1.70;;;1.60;;
6177;SDS011;3122;48.208;11.174;2022-08-01T21:53:20;5.07;;;1.60;;
6177;SDS011;3122;48.208;11.174;2022-08-01T22:03:54;6.40;;;2.27;;
6177;SDS011;3122;48.208;11.174;2022-08-01T22:08:58;3.03;;;1.87;;
6177;SDS011;3122;48.208;11.174;2022-08-01T22:14:04;1.83;;;1.70;;
6177;SDS011;3122;48.208;11.174;2022-08-01T22:19:07;1.80;;;1.70;;
6177;SDS011;3122;48.208;11.174;2022-08-01T22:24:09;2.50;;;2.30;;
6177;SDS011;3122;48.208;11.174;2022-08-01T22:29:10;2.33;;;2.10;;
6177;SDS011;3122;48.208;11.174;2022-08-01T22:34:12;5.60;;;1.73;;
6177;SDS011;3122;48.208;11.174;2022-08-01T22:39:16;2.90;;;1.60;;
6177;SDS011;3122;48.208;11.174;2022-08-01T22:44:16;2.20;;;2.10;;
6177;SDS011;3122;48.208;11.174;2022-08-01T22:49:39;3.33;;;2.07;;
6177;SDS011;3122;48.208;11.174;2022-08-01T22:54:58;2.60;;;2.20;;
6177;SDS011;3122;48.208;11.174;2022-08-01T23:00:06;2.07;;;1.97;;
6177;SDS011;3122;48.208;11.174;2022-08-01T23:05:10;3.47;;;2.33;;
6177;SDS011;3122;48.208;11.174;2022-08-01T23:10:13;2.67;;;2.00;;
6177;SDS011;3122;48.208;11.174;2022-08-01T23:15:14;1.80;;;1.70;;
6177;SDS011;3122;48.208;11.174;2022-08-01T23:20:16;2.40;;;2.00;;
6177;SDS011;3122;48.208;11.174;2022-08-01T23:25:17;1.83;;;1.73;;
6177;SDS011;3122;48.208;11.174;2022-08-01T23:30:17;2.07;;;1.60;;
6177;SDS011;3122;48.208;11.174;2022-08-01T23:35:18;4.70;;;1.90;;
6177;SDS011;3122;48.208;11.174;2022-08-01T23:40:19;1.90;;;1.70;;
6177;SDS011;3122;48.208;11.174;2022-08-01T23:45:20;1.63;;;1.53;;
6177;SDS011;3122;48.208;11.174;2022-08-01T23:50:20;1.60;;;1.50;;
6177;SDS011;3122;48.208;11.174;2022-08-01T23:55:22;1.53;;;1.43;;
